Terminal Aerodrome Forecast
Issued by NWS

Home | Current Version | Previous Version | Text Only | Print | Product List | Glossary On
Versions: 1 2 3 4 5 6 7 8 9 10 11 12 13 14 15
000
FTUS44 KCRP 261100
TAFALI
TAF
KALI 261130Z 2612/2712 17005KT P6SM SCT022
      TEMPO 2612/2614 5SM BR
     FM261400 17013G17KT P6SM SCT028
     FM262100 14019G25KT P6SM FEW050 SCT250
     FM270300 15010KT P6SM FEW250=

USA.gov is the U.S. government's official web portal to all federal, state and local government web resources and services.